createdAt,value
2022-12-05T00:00:01.488Z,4.72
2022-12-05T00:02:33.267Z,19.50
2022-12-05T00:05:02.122Z,13.48
2022-12-05T00:07:30.981Z,20.50
2022-12-05T00:10:00.227Z,8.02
2022-12-05T00:12:29.180Z,6.43
2022-12-05T00:14:58.150Z,9.50
2022-12-05T00:17:26.956Z,5.30
2022-12-05T00:19:57.109Z,6.47
2022-12-05T00:22:27.341Z,5.30
2022-12-05T00:24:56.407Z,4.88
2022-12-05T00:27:25.450Z,5.65
2022-12-05T00:29:54.512Z,6.70
2022-12-05T00:32:24.266Z,5.35
2022-12-05T00:34:58.536Z,6.05
2022-12-05T00:37:27.462Z,7.82
2022-12-05T00:39:56.709Z,6.63
2022-12-05T00:42:25.808Z,8.93
2022-12-05T00:44:54.841Z,8.30
2022-12-05T00:47:23.752Z,7.65
2022-12-05T00:49:52.744Z,8.98
2022-12-05T00:52:22.056Z,8.23
2022-12-05T00:54:51.042Z,13.90
2022-12-05T00:57:19.966Z,9.05
2022-12-05T00:59:48.760Z,9.30
2022-12-05T01:02:27.174Z,13.30
2022-12-05T01:04:58.972Z,11.75
2022-12-05T01:07:28.111Z,8.27
2022-12-05T01:09:57.400Z,4.55
2022-12-05T01:12:26.735Z,5.85
2022-12-05T01:18:48.893Z,5.78
2022-12-05T01:19:30.469Z,9.95
2022-12-05T01:21:17.938Z,4.70
2022-12-05T01:23:46.776Z,4.68
2022-12-05T01:26:18.117Z,7.65
2022-12-05T01:28:48.101Z,7.20
2022-12-05T01:31:30.136Z,10.05
2022-12-05T01:34:04.982Z,8.85
2022-12-05T01:36:34.783Z,8.23
2022-12-05T01:39:04.340Z,6.97
2022-12-05T01:41:36.660Z,8.18
2022-12-05T01:44:14.993Z,8.98
2022-12-05T01:46:50.921Z,7.40
2022-12-05T01:49:33.791Z,6.88
2022-12-05T01:52:10.487Z,9.88
2022-12-05T01:54:41.774Z,8.90
2022-12-05T01:57:15.933Z,9.50
2022-12-05T01:59:51.125Z,9.40
2022-12-05T02:02:20.934Z,14.00
2022-12-05T02:05:03.205Z,9.93
2022-12-05T02:07:38.708Z,6.90
2022-12-05T02:10:35.073Z,8.48
2022-12-05T02:13:31.202Z,6.93
2022-12-05T02:16:19.958Z,6.45
2022-12-05T02:19:11.102Z,8.13
2022-12-05T02:22:02.036Z,9.95
2022-12-05T02:24:54.723Z,5.15
2022-12-05T02:27:53.558Z,7.95
2022-12-05T02:30:24.568Z,4.60
2022-12-05T02:33:24.545Z,7.05
2022-12-05T02:36:11.574Z,5.68
2022-12-05T02:38:49.397Z,7.43
2022-12-05T02:41:21.733Z,5.70
2022-12-05T02:44:16.919Z,11.88
2022-12-05T02:46:49.609Z,6.15
2022-12-05T02:49:24.232Z,12.20
2022-12-05T02:51:57.907Z,5.47
2022-12-05T02:54:36.541Z,13.40
2022-12-05T02:57:06.799Z,14.05
2022-12-05T02:59:35.644Z,10.65
2022-12-05T03:02:04.767Z,13.70
2022-12-05T03:04:34.301Z,9.13
2022-12-05T03:07:13.279Z,10.80
2022-12-05T03:10:01.404Z,10.05
2022-12-05T03:12:45.548Z,12.82
2022-12-05T03:15:23.034Z,7.00
2022-12-05T03:18:05.371Z,6.82
2022-12-05T03:20:39.913Z,7.32
2022-12-05T03:23:25.922Z,7.10
2022-12-05T03:26:18.605Z,9.30
2022-12-05T03:28:56.649Z,7.55
2022-12-05T03:32:08.844Z,5.93
2022-12-05T03:34:49.247Z,7.13
2022-12-05T03:37:40.142Z,9.60
2022-12-05T03:40:36.294Z,10.05
2022-12-05T03:43:14.099Z,11.75
2022-12-05T03:45:59.620Z,11.05
2022-12-05T03:48:59.536Z,7.20
2022-12-05T03:51:46.554Z,6.95
2022-12-05T03:54:35.081Z,7.63
2022-12-05T03:57:44.933Z,6.68
2022-12-05T04:00:26.195Z,5.72
2022-12-05T04:03:16.228Z,6.32
2022-12-05T04:05:53.509Z,7.43
2022-12-05T04:08:25.989Z,6.93
2022-12-05T04:11:00.585Z,6.65
2022-12-05T04:13:43.099Z,7.82
2022-12-05T04:16:30.434Z,7.75
2022-12-05T04:21:41.497Z,5.88
2022-12-05T04:24:50.213Z,7.18
2022-12-05T04:27:24.500Z,5.65
2022-12-05T04:30:05.742Z,4.53
2022-12-05T04:32:48.590Z,5.85
2022-12-05T04:35:27.073Z,4.72
2022-12-05T04:38:04.120Z,6.28
2022-12-05T04:40:43.744Z,5.28
2022-12-05T04:43:15.330Z,4.00
2022-12-05T04:45:45.616Z,3.55
2022-12-05T04:48:19.205Z,4.95
2022-12-05T04:50:50.642Z,5.68
2022-12-05T04:53:20.530Z,7.20
2022-12-05T04:55:53.607Z,5.35
2022-12-05T04:58:25.824Z,8.65
2022-12-05T05:01:10.952Z,6.03
2022-12-05T05:03:49.710Z,7.65
2022-12-05T05:06:19.134Z,7.40
2022-12-05T05:08:56.931Z,8.32
2022-12-05T05:11:30.811Z,9.02
2022-12-05T05:13:59.971Z,8.57
2022-12-05T05:16:43.446Z,6.95
2022-12-05T05:19:13.782Z,8.43
2022-12-05T05:21:44.021Z,8.23
2022-12-05T05:24:13.627Z,7.95
2022-12-05T05:26:45.019Z,4.43
2022-12-05T05:29:15.683Z,4.15
2022-12-05T05:31:44.769Z,3.65
2022-12-05T05:34:15.949Z,3.70
2022-12-05T05:36:44.934Z,6.75
2022-12-05T05:39:16.053Z,4.10
2022-12-05T05:41:45.332Z,9.82
2022-12-05T05:44:14.131Z,10.93
2022-12-05T05:46:43.076Z,10.52
2022-12-05T05:49:11.890Z,9.38
2022-12-05T05:51:40.936Z,10.77
2022-12-05T05:54:11.485Z,24.42
2022-12-05T05:56:45.510Z,33.85
2022-12-05T05:59:14.700Z,51.63
2022-12-05T06:01:43.985Z,22.67
2022-12-05T06:04:12.930Z,15.35
2022-12-05T06:06:42.067Z,10.30
2022-12-05T06:09:11.125Z,8.93
2022-12-05T06:11:40.247Z,4.97
2022-12-05T06:14:22.261Z,4.78
2022-12-05T06:17:20.380Z,36.75
2022-12-05T06:19:51.201Z,26.75
2022-12-05T06:22:20.491Z,14.48
2022-12-05T06:24:49.959Z,21.05
2022-12-05T06:27:19.245Z,13.80
2022-12-05T06:29:48.794Z,13.50
2022-12-05T06:32:17.598Z,17.20
2022-12-05T06:34:49.277Z,18.85
2022-12-05T06:37:18.197Z,15.63
2022-12-05T06:39:47.359Z,16.35
2022-12-05T06:42:16.256Z,32.08
2022-12-05T06:44:45.094Z,53.53
2022-12-05T06:47:13.927Z,54.13
2022-12-05T06:49:43.011Z,37.38
2022-12-05T06:52:11.876Z,34.42
2022-12-05T06:54:40.703Z,32.65
2022-12-05T06:57:10.430Z,29.27
2022-12-05T06:59:39.317Z,28.92
2022-12-05T07:02:09.265Z,24.45
2022-12-05T07:04:38.241Z,19.58
2022-12-05T07:07:07.373Z,17.92
2022-12-05T07:09:52.066Z,24.17
2022-12-05T07:12:21.211Z,24.33
2022-12-05T07:14:50.490Z,17.60
2022-12-05T07:17:21.629Z,22.92
2022-12-05T07:19:52.062Z,21.40
2022-12-05T07:22:22.602Z,18.23
2022-12-05T07:24:54.006Z,14.77
2022-12-05T07:27:27.325Z,11.70
2022-12-05T07:29:57.797Z,8.55
2022-12-05T07:32:26.929Z,7.68
2022-12-05T07:34:55.879Z,6.85
2022-12-05T07:37:24.781Z,7.20
2022-12-05T07:39:54.385Z,6.40
2022-12-05T07:42:23.176Z,4.80
2022-12-05T07:44:52.132Z,8.40
2022-12-05T07:47:21.105Z,6.65
2022-12-05T07:49:49.919Z,8.32
2022-12-05T07:52:18.713Z,11.80
2022-12-05T07:54:47.503Z,12.60
2022-12-05T07:57:16.367Z,9.95
2022-12-05T07:59:45.197Z,12.02
2022-12-05T08:02:14.151Z,11.45
2022-12-05T08:04:43.107Z,12.40
2022-12-05T08:07:12.506Z,8.07
2022-12-05T08:09:41.431Z,7.13
2022-12-05T08:12:10.294Z,7.85
2022-12-05T08:14:39.113Z,9.30
2022-12-05T08:17:10.075Z,8.13
2022-12-05T08:19:39.176Z,5.20
2022-12-05T08:22:07.995Z,7.40
2022-12-05T08:24:36.921Z,9.82
2022-12-05T08:27:06.881Z,10.50
2022-12-05T08:29:35.791Z,8.85
2022-12-05T08:32:04.659Z,9.75
2022-12-05T08:34:33.773Z,8.35
2022-12-05T08:37:02.547Z,8.27
2022-12-05T08:39:38.006Z,7.15
2022-12-05T08:42:07.485Z,5.50
2022-12-05T08:44:36.223Z,5.45
2022-12-05T08:47:05.105Z,8.48
2022-12-05T08:49:34.032Z,4.25
2022-12-05T08:52:02.878Z,6.05
2022-12-05T08:54:34.392Z,6.35
2022-12-05T08:57:03.485Z,9.43
2022-12-05T08:59:32.566Z,9.05
2022-12-05T09:02:01.498Z,12.55
2022-12-05T09:04:30.350Z,12.38
2022-12-05T09:07:02.285Z,6.35
2022-12-05T09:09:33.996Z,4.47
2022-12-05T09:12:02.984Z,5.25
2022-12-05T09:14:33.835Z,4.90
2022-12-05T09:17:03.058Z,4.68
2022-12-05T09:19:32.054Z,6.55
2022-12-05T09:22:00.917Z,5.57
2022-12-05T09:24:29.725Z,9.05
2022-12-05T09:26:58.785Z,4.95
2022-12-05T09:29:30.284Z,4.90
2022-12-05T09:31:59.185Z,6.97
2022-12-05T09:34:28.756Z,8.20
2022-12-05T09:37:16.638Z,8.10
2022-12-05T09:39:47.884Z,7.07
2022-12-05T09:42:31.915Z,5.63
2022-12-05T09:45:16.665Z,4.75
2022-12-05T09:47:58.864Z,5.47
2022-12-05T09:50:29.215Z,11.93
2022-12-05T09:53:12.125Z,17.17
2022-12-05T09:55:53.703Z,20.83
2022-12-05T09:58:32.113Z,17.90
2022-12-05T10:01:18.910Z,18.45
2022-12-05T10:04:14.205Z,20.40
2022-12-05T10:07:03.203Z,18.38
2022-12-05T10:09:32.003Z,26.48
2022-12-05T10:12:31.295Z,24.08
2022-12-05T10:15:11.873Z,19.63
2022-12-05T10:17:47.151Z,9.20
2022-12-05T10:20:43.473Z,5.28
2022-12-05T10:23:56.606Z,4.80
2022-12-05T10:26:23.914Z,4.07
2022-12-05T10:28:58.626Z,3.20
2022-12-05T10:31:37.198Z,3.55
2022-12-05T10:34:23.442Z,3.67
2022-12-05T10:37:20.034Z,3.75
2022-12-05T10:39:51.295Z,3.63
2022-12-05T10:42:30.093Z,3.35
2022-12-05T10:45:06.056Z,3.40
2022-12-05T10:47:36.304Z,3.58
2022-12-05T10:50:18.402Z,3.25
2022-12-05T10:52:48.887Z,4.05
2022-12-05T10:55:19.884Z,4.50
2022-12-05T10:57:53.110Z,5.50
2022-12-05T11:00:25.978Z,4.43
2022-12-05T11:02:55.864Z,3.30
2022-12-05T11:05:34.861Z,4.30
2022-12-05T11:08:03.952Z,4.60
2022-12-05T11:10:39.734Z,4.07
2022-12-05T11:13:26.819Z,3.78
2022-12-05T11:15:55.935Z,4.20
2022-12-05T11:18:34.018Z,3.35
2022-12-05T11:21:16.841Z,5.00
2022-12-05T11:23:45.836Z,3.78
2022-12-05T11:26:38.022Z,4.63
2022-12-05T11:29:39.333Z,3.30
2022-12-05T11:32:23.639Z,4.38
2022-12-05T11:35:02.554Z,3.50
2022-12-05T11:37:39.741Z,4.72
2022-12-05T11:40:30.938Z,3.95
2022-12-05T11:43:25.869Z,4.45
2022-12-05T11:46:13.205Z,4.50
2022-12-05T11:49:00.810Z,5.75
2022-12-05T11:52:00.085Z,5.28
2022-12-05T11:55:13.537Z,4.45
2022-12-05T11:57:52.291Z,3.72
2022-12-05T12:00:26.390Z,4.88
2022-12-05T12:02:58.311Z,4.38
2022-12-05T12:05:48.289Z,4.32
2022-12-05T12:08:28.434Z,5.28
2022-12-05T12:11:07.383Z,6.95
2022-12-05T12:14:05.750Z,4.47
2022-12-05T12:17:21.903Z,4.15
2022-12-05T12:20:10.539Z,3.03
2022-12-05T12:22:58.876Z,6.38
2022-12-05T12:25:45.382Z,3.80
2022-12-05T12:28:23.178Z,3.60
2022-12-05T12:31:13.653Z,2.90
2022-12-05T12:33:52.466Z,3.28
2022-12-05T12:36:46.174Z,4.78
2022-12-05T12:39:27.579Z,4.40
2022-12-05T12:42:02.465Z,3.90
2022-12-05T12:44:47.681Z,5.22
2022-12-05T12:47:22.702Z,2.50
2022-12-05T12:50:23.084Z,3.28
2022-12-05T12:53:29.496Z,4.00
2022-12-05T12:56:12.887Z,3.55
2022-12-05T12:58:59.807Z,2.83
2022-12-05T13:01:32.277Z,3.92
2022-12-05T13:04:13.108Z,2.83
2022-12-05T13:06:42.096Z,3.10
2022-12-05T13:09:25.136Z,3.47
2022-12-05T13:11:59.055Z,3.78
2022-12-05T13:14:30.502Z,5.57
2022-12-05T13:17:20.347Z,3.33
2022-12-05T13:20:26.181Z,3.00
2022-12-05T13:23:00.895Z,4.53
2022-12-05T13:25:41.295Z,5.78
2022-12-05T13:28:43.089Z,6.97
2022-12-05T13:31:17.418Z,3.55
2022-12-05T13:33:49.146Z,5.97
2022-12-05T13:36:40.922Z,6.50
2022-12-05T13:39:34.273Z,4.95
2022-12-05T13:42:18.248Z,7.68
2022-12-05T13:44:54.978Z,5.40
2022-12-05T13:47:26.707Z,6.15
2022-12-05T13:50:04.218Z,4.13
2022-12-05T13:52:42.902Z,4.80
2022-12-05T13:55:23.728Z,5.03
2022-12-05T13:57:55.156Z,8.88
2022-12-05T14:00:37.946Z,4.40
2022-12-05T14:03:35.902Z,4.85
2022-12-05T14:06:05.560Z,7.00
2022-12-05T14:08:38.424Z,6.32
2022-12-05T14:11:09.327Z,4.13
2022-12-05T14:13:42.921Z,4.72
2022-12-05T14:16:27.157Z,3.88
2022-12-05T14:19:27.648Z,4.10
2022-12-05T14:22:16.901Z,5.53
2022-12-05T14:25:27.092Z,3.78
2022-12-05T14:28:20.330Z,4.30
2022-12-05T14:31:07.585Z,3.67
2022-12-05T14:33:36.805Z,4.15
2022-12-05T14:36:09.091Z,3.75
2022-12-05T14:38:38.748Z,5.82
2022-12-05T14:41:27.285Z,5.60
2022-12-05T14:43:57.653Z,5.97
2022-12-05T14:46:35.833Z,3.58
2022-12-05T14:49:51.452Z,4.60
2022-12-05T14:52:24.876Z,4.78
2022-12-05T14:54:59.523Z,4.07
2022-12-05T14:57:30.137Z,4.35
2022-12-05T15:00:07.814Z,5.63
2022-12-05T15:02:43.372Z,4.07
2022-12-05T15:05:29.293Z,4.55
2022-12-05T15:08:00.816Z,3.88
2022-12-05T15:10:40.798Z,7.35
2022-12-05T15:13:18.742Z,3.42
2022-12-05T15:15:59.534Z,2.90
2022-12-05T15:18:35.506Z,4.45
2022-12-05T15:21:24.938Z,4.50
2022-12-05T15:24:02.379Z,7.13
2022-12-05T15:26:49.734Z,5.00
2022-12-05T15:29:23.906Z,3.63
2022-12-05T15:32:07.482Z,3.95
2022-12-05T15:34:48.441Z,5.13
2022-12-05T15:37:28.350Z,4.15
2022-12-05T15:40:15.024Z,4.28
2022-12-05T15:42:49.769Z,4.38
2022-12-05T15:45:25.196Z,4.30
2022-12-05T15:48:09.347Z,3.85
2022-12-05T15:50:44.315Z,4.63
2022-12-05T15:53:22.355Z,3.40
2022-12-05T15:56:17.394Z,8.27
2022-12-05T15:59:12.448Z,5.22
2022-12-05T16:01:46.420Z,6.47
2022-12-05T16:04:43.630Z,5.03
2022-12-05T16:07:15.823Z,3.88
2022-12-05T16:09:47.061Z,4.90
2022-12-05T16:12:32.124Z,5.72
2022-12-05T16:15:05.808Z,7.63
2022-12-05T16:17:46.724Z,4.45
2022-12-05T16:20:18.754Z,6.95
2022-12-05T16:22:50.417Z,6.22
2022-12-05T16:25:28.233Z,4.60
2022-12-05T16:28:00.418Z,6.15
2022-12-05T16:30:32.376Z,3.63
2022-12-05T16:33:06.236Z,4.78
2022-12-05T16:35:46.927Z,5.70
2022-12-05T16:38:15.744Z,7.22
2022-12-05T16:40:47.682Z,9.40
2022-12-05T16:43:29.910Z,5.05
2022-12-05T16:46:16.374Z,5.80
2022-12-05T16:48:51.919Z,5.88
2022-12-05T16:51:29.398Z,6.15
2022-12-05T16:53:58.303Z,4.97
2022-12-05T16:56:34.586Z,7.55
2022-12-05T16:59:10.704Z,4.55
2022-12-05T17:01:40.165Z,5.40
2022-12-05T17:04:12.169Z,7.57
2022-12-05T17:06:41.234Z,3.67
2022-12-05T17:09:12.445Z,6.53
2022-12-05T17:11:45.723Z,6.40
2022-12-05T17:14:17.268Z,8.35
2022-12-05T17:16:46.597Z,7.90
2022-12-05T17:19:15.662Z,9.40
2022-12-05T17:21:45.526Z,8.68
2022-12-05T17:24:18.129Z,7.95
2022-12-05T17:26:48.210Z,7.85
2022-12-05T17:29:17.254Z,10.40
2022-12-05T17:31:46.461Z,6.10
2022-12-05T17:34:18.202Z,6.15
2022-12-05T17:36:47.310Z,5.85
2022-12-05T17:39:16.064Z,5.85
2022-12-05T17:41:45.072Z,4.22
2022-12-05T17:44:15.579Z,7.93
2022-12-05T17:46:45.252Z,4.93
2022-12-05T17:49:16.753Z,8.00
2022-12-05T17:52:20.069Z,7.82
2022-12-05T17:54:35.747Z,11.20
2022-12-05T17:57:04.618Z,13.43
2022-12-05T17:59:33.800Z,7.53
2022-12-05T18:02:02.516Z,6.18
2022-12-05T18:04:31.369Z,4.88
2022-12-05T18:07:00.446Z,7.13
2022-12-05T18:09:29.434Z,6.85
2022-12-05T18:11:58.523Z,5.80
2022-12-05T18:14:29.049Z,7.90
2022-12-05T18:16:58.804Z,7.82
2022-12-05T18:19:27.833Z,7.18
2022-12-05T18:21:56.618Z,5.70
2022-12-05T18:24:25.523Z,5.78
2022-12-05T18:26:56.609Z,6.32
2022-12-05T18:29:25.632Z,17.85
2022-12-05T18:31:54.486Z,12.43
2022-12-05T18:34:23.364Z,18.08
2022-12-05T18:36:52.564Z,8.93
2022-12-05T18:39:21.625Z,14.88
2022-12-05T18:41:50.439Z,9.93
2022-12-05T18:44:19.766Z,7.95
2022-12-05T18:46:48.563Z,6.90
2022-12-05T18:49:17.348Z,6.30
2022-12-05T18:51:46.807Z,5.65
2022-12-05T18:54:15.778Z,3.88
2022-12-05T18:56:46.672Z,5.40
2022-12-05T18:59:19.548Z,5.40
2022-12-05T19:01:49.531Z,8.10
2022-12-05T19:04:21.350Z,5.65
2022-12-05T19:06:55.350Z,7.22
2022-12-05T19:09:27.327Z,9.10
2022-12-05T19:12:01.496Z,7.10
2022-12-05T19:14:33.688Z,9.60
2022-12-05T19:17:03.780Z,6.10
2022-12-05T19:19:32.745Z,4.22
2022-12-05T19:22:02.831Z,6.97
2022-12-05T19:24:31.780Z,6.18
2022-12-05T19:27:00.944Z,5.32
2022-12-05T19:29:29.994Z,4.00
2022-12-05T19:32:11.451Z,4.20
2022-12-05T19:34:41.143Z,9.95
2022-12-05T19:37:10.381Z,9.18
2022-12-05T19:39:40.038Z,6.82
2022-12-05T19:42:09.842Z,4.72
2022-12-05T19:44:39.558Z,3.92
2022-12-05T19:47:11.887Z,5.78
2022-12-05T19:49:46.852Z,6.82
2022-12-05T19:52:18.505Z,7.18
2022-12-05T19:54:47.393Z,7.65
2022-12-05T19:57:18.757Z,5.53
2022-12-05T19:59:48.466Z,7.15
2022-12-05T20:02:21.761Z,4.72
2022-12-05T20:04:50.897Z,6.95
2022-12-05T20:07:19.730Z,6.65
2022-12-05T20:09:48.565Z,11.57
2022-12-05T20:12:17.327Z,7.55
2022-12-05T20:14:46.154Z,8.50
2022-12-05T20:17:14.898Z,7.38
2022-12-05T20:19:43.784Z,4.68
2022-12-05T20:22:12.583Z,4.78
2022-12-05T20:24:41.383Z,4.15
2022-12-05T20:27:10.206Z,4.07
2022-12-05T20:29:39.814Z,6.50
2022-12-05T20:32:12.923Z,5.03
2022-12-05T20:34:42.041Z,7.85
2022-12-05T20:37:11.990Z,5.28
2022-12-05T20:39:44.171Z,4.03
2022-12-05T20:42:13.198Z,5.20
2022-12-05T20:44:42.398Z,5.10
2022-12-05T20:47:11.261Z,7.65
2022-12-05T20:49:40.289Z,5.15
2022-12-05T20:52:09.143Z,10.93
2022-12-05T20:54:37.953Z,5.38
2022-12-05T20:57:07.109Z,6.00
2022-12-05T20:59:35.871Z,4.03
2022-12-05T21:02:04.888Z,9.95
2022-12-05T21:04:34.116Z,6.30
2022-12-05T21:07:02.916Z,4.43
2022-12-05T21:09:32.700Z,6.88
2022-12-05T21:12:01.880Z,5.30
2022-12-05T21:14:30.854Z,5.80
2022-12-05T21:16:59.738Z,7.50
2022-12-05T21:19:29.433Z,6.38
2022-12-05T21:21:58.277Z,4.72
2022-12-05T21:24:27.367Z,8.02
2022-12-05T21:26:59.329Z,4.82
2022-12-05T21:29:28.472Z,4.00
2022-12-05T21:32:00.546Z,5.03
2022-12-05T21:34:32.157Z,5.25
2022-12-05T21:37:04.022Z,5.13
2022-12-05T21:39:32.926Z,4.25
2022-12-05T21:42:01.758Z,4.63
2022-12-05T21:44:31.379Z,7.15
2022-12-05T21:47:00.538Z,5.90
2022-12-05T21:49:29.406Z,4.10
2022-12-05T21:51:58.517Z,4.13
2022-12-05T21:54:27.364Z,6.13
2022-12-05T21:56:56.331Z,4.45
2022-12-05T21:59:26.171Z,3.40
2022-12-05T22:01:55.668Z,4.47
2022-12-05T22:04:25.676Z,4.97
2022-12-05T22:06:55.277Z,3.92
2022-12-05T22:09:24.456Z,9.35
2022-12-05T22:11:53.231Z,5.68
2022-12-05T22:14:22.322Z,3.33
2022-12-05T22:16:51.419Z,4.35
2022-12-05T22:19:22.899Z,4.03
2022-12-05T22:21:52.328Z,3.75
2022-12-05T22:24:21.386Z,7.70
2022-12-05T22:26:52.772Z,4.03
2022-12-05T22:29:27.366Z,3.67
2022-12-05T22:32:01.762Z,4.63
2022-12-05T22:34:30.826Z,8.40
2022-12-05T22:37:00.095Z,6.65
2022-12-05T22:39:31.108Z,5.63
2022-12-05T22:42:00.288Z,5.90
2022-12-05T22:44:29.206Z,5.82
2022-12-05T22:46:58.427Z,5.50
2022-12-05T22:49:27.668Z,6.15
2022-12-05T22:51:56.641Z,4.70
2022-12-05T22:54:30.082Z,5.15
2022-12-05T22:56:59.508Z,8.25
2022-12-05T22:59:28.466Z,6.10
2022-12-05T23:01:57.991Z,9.48
2022-12-05T23:04:28.283Z,5.63
2022-12-05T23:06:57.265Z,7.95
2022-12-05T23:09:26.070Z,7.20
2022-12-05T23:11:54.956Z,8.35
2022-12-05T23:14:23.757Z,8.40
2022-12-05T23:16:52.721Z,6.28
2022-12-05T23:19:22.518Z,7.82
2022-12-05T23:21:51.510Z,7.00
2022-12-05T23:24:20.340Z,6.68
2022-12-05T23:26:49.332Z,5.57
2022-12-05T23:29:21.488Z,8.43
2022-12-05T23:31:50.346Z,5.75
2022-12-05T23:34:19.422Z,6.90
2022-12-05T23:36:48.341Z,8.20
2022-12-05T23:39:20.563Z,6.25
2022-12-05T23:41:49.960Z,6.75
2022-12-05T23:44:18.954Z,5.25
2022-12-05T23:46:47.861Z,10.45
2022-12-05T23:49:17.187Z,8.65
2022-12-05T23:51:46.320Z,5.40
2022-12-05T23:54:17.409Z,7.13
2022-12-05T23:56:46.445Z,9.35
2022-12-05T23:59:15.329Z,10.63
